<?xml version="1.0" encoding="UTF-8" standalone="no" ?><gpx xmlns="http://www.topografix.com/GPX/1/1" xmlns:gpxx="http://www.garmin.com/xmlschemas/GpxExtensions/v3" xmlns:gpxtrkx="http://www.garmin.com/xmlschemas/TrackStatsExtension/v1" xmlns:wptx1="http://www.garmin.com/xmlschemas/WaypointExtension/v1" xmlns:gpxtpx="http://www.garmin.com/xmlschemas/TrackPointExtension/v1" creator="Oregon 700" version="1.1" xmlns:xsi="http://www.w3.org/2001/XMLSchema-instance" xsi:schemaLocation="http://www.topografix.com/GPX/1/1 http://www.topografix.com/GPX/1/1/gpx.xsd http://www.garmin.com/xmlschemas/GpxExtensions/v3 http://www8.garmin.com/xmlschemas/GpxExtensionsv3.xsd http://www.garmin.com/xmlschemas/TrackStatsExtension/v1 http://www8.garmin.com/xmlschemas/TrackStatsExtension.xsd http://www.garmin.com/xmlschemas/WaypointExtension/v1 http://www8.garmin.com/xmlschemas/WaypointExtensionv1.xsd http://www.garmin.com/xmlschemas/TrackPointExtension/v1 http://www.garmin.com/xmlschemas/TrackPointExtensionv1.xsd"><metadata><link href="http://www.garmin.com"><text>Garmin International</text></link><time>2022-01-12T11:44:55Z</time></metadata><trk><name>Current Track: 12 JAN 2022 10:04</name><extensions><gpxx:TrackExtension><gpxx:DisplayColor>Cyan</gpxx:DisplayColor></gpxx:TrackExtension><gpxtrkx:TrackStatsExtension><gpxtrkx:Distance>3879.000</gpxtrkx:Distance><gpxtrkx:TimerTime>5958</gpxtrkx:TimerTime><gpxtrkx:TotalElapsedTime>5958</gpxtrkx:TotalElapsedTime><gpxtrkx:MovingTime>5132</gpxtrkx:MovingTime><gpxtrkx:StoppedTime>867</gpxtrkx:StoppedTime><gpxtrkx:MovingSpeed>0.763</gpxtrkx:MovingSpeed><gpxtrkx:MaxSpeed>1.452</gpxtrkx:MaxSpeed><gpxtrkx:MaxElevation>0.000</gpxtrkx:MaxElevation><gpxtrkx:MinElevation>-132.972</gpxtrkx:MinElevation><gpxtrkx:Ascent>73.000</gpxtrkx:Ascent><gpxtrkx:Descent>75.132</gpxtrkx:Descent><gpxtrkx:AvgAscentRate>0.047</gpxtrkx:AvgAscentRate><gpxtrkx:MaxAscentRate>0.121</gpxtrkx:MaxAscentRate><gpxtrkx:AvgDescentRate>0.050</gpxtrkx:AvgDescentRate><gpxtrkx:MaxDescentRate>-0.196</gpxtrkx:MaxDescentRate><gpxtrkx:Calories>166</gpxtrkx:Calories></gpxtrkx:TrackStatsExtension></extensions><trkseg><trkpt lat="51.9097198639" lon="-1.8289624527"><ele>-129.74</ele><time>2022-01-12T10:04:41Z</time></trkpt><trkpt lat="51.9097527210" lon="-1.8289562501"><ele>-129.62</ele><time>2022-01-12T10:04:59Z</time></trkpt><trkpt lat="51.9097818062" lon="-1.8290624488"><ele>-129.95</ele><time>2022-01-12T10:05:16Z</time></trkpt><trkpt lat="51.9097951334" lon="-1.8293444999"><ele>-129.66</ele><time>2022-01-12T10:05:39Z</time></trkpt><trkpt lat="51.9097760227" lon="-1.8296251260"><ele>-129.63</ele><time>2022-01-12T10:05:58Z</time></trkpt><trkpt lat="51.9097523019" lon="-1.8299231865"><ele>-129.63</ele><time>2022-01-12T10:06:24Z</time></trkpt><trkpt lat="51.9097667187" lon="-1.8301806785"><ele>-129.63</ele><time>2022-01-12T10:06:41Z</time></trkpt><trkpt lat="51.9097249769" lon="-1.8304896355"><ele>-129.61</ele><time>2022-01-12T10:07:01Z</time></trkpt><trkpt lat="51.9097181037" lon="-1.8307351414"><ele>-129.64</ele><time>2022-01-12T10:07:21Z</time></trkpt><trkpt lat="51.9097069558" lon="-1.8310623709"><ele>-129.52</ele><time>2022-01-12T10:07:42Z</time></trkpt><trkpt lat="51.9097075425" lon="-1.8313872535"><ele>-129.62</ele><time>2022-01-12T10:08:02Z</time></trkpt><trkpt lat="51.9096657168" lon="-1.8316544686"><ele>-129.39</ele><time>2022-01-12T10:08:23Z</time></trkpt><trkpt lat="51.9096502103" lon="-1.8319589831"><ele>-129.39</ele><time>2022-01-12T10:08:44Z</time></trkpt><trkpt lat="51.9096064568" lon="-1.8322045729"><ele>-129.39</ele><time>2022-01-12T10:09:05Z</time></trkpt><trkpt lat="51.9095057063" lon="-1.8325233366"><ele>-129.39</ele><time>2022-01-12T10:09:25Z</time></trkpt><trkpt lat="51.9094164390" lon="-1.8327457085"><ele>-126.82</ele><time>2022-01-12T10:09:41Z</time></trkpt><trkpt lat="51.9092786405" lon="-1.8330336269"><ele>-124.56</ele><time>2022-01-12T10:10:05Z</time></trkpt><trkpt lat="51.9092213083" lon="-1.8331975769"><ele>-123.01</ele><time>2022-01-12T10:10:20Z</time></trkpt><trkpt lat="51.9091266766" lon="-1.8333195336"><ele>-121.98</ele><time>2022-01-12T10:10:35Z</time></trkpt><trkpt lat="51.9090187177" lon="-1.8332100660"><ele>-123.13</ele><time>2022-01-12T10:10:55Z</time></trkpt><trkpt lat="51.9089999422" lon="-1.8329784740"><ele>-124.79</ele><time>2022-01-12T10:11:12Z</time></trkpt><trkpt lat="51.9089797419" lon="-1.8327527493"><ele>-127.23</ele><time>2022-01-12T10:11:30Z</time></trkpt><trkpt lat="51.9089258462" lon="-1.8326822575"><ele>-128.41</ele><time>2022-01-12T10:11:43Z</time></trkpt><trkpt lat="51.9087862037" lon="-1.8325531762"><ele>-129.36</ele><time>2022-01-12T10:12:06Z</time></trkpt><trkpt lat="51.9086814299" lon="-1.8325031362"><ele>-129.40</ele><time>2022-01-12T10:12:25Z</time></trkpt><trkpt lat="51.9085874688" lon="-1.8324024696"><ele>-129.39</ele><time>2022-01-12T10:12:45Z</time></trkpt><trkpt lat="51.9085240178" lon="-1.8323826883"><ele>-129.40</ele><time>2022-01-12T10:13:01Z</time></trkpt><trkpt lat="51.9083777536" lon="-1.8324590474"><ele>-128.87</ele><time>2022-01-12T10:13:24Z</time></trkpt><trkpt lat="51.9082960300" lon="-1.8326209858"><ele>-128.76</ele><time>2022-01-12T10:13:43Z</time></trkpt><trkpt lat="51.9082214311" lon="-1.8329046294"><ele>-128.96</ele><time>2022-01-12T10:14:07Z</time></trkpt><trkpt lat="51.9081459939" lon="-1.8331888597"><ele>-129.25</ele><time>2022-01-12T10:14:29Z</time></trkpt><trkpt lat="51.9080810342" lon="-1.8334486149"><ele>-129.10</ele><time>2022-01-12T10:14:48Z</time></trkpt><trkpt lat="51.9080284797" lon="-1.8336487748"><ele>-129.11</ele><time>2022-01-12T10:15:05Z</time></trkpt><trkpt lat="51.9079874083" lon="-1.8339086138"><ele>-129.11</ele><time>2022-01-12T10:15:27Z</time></trkpt><trkpt lat="51.9079399668" lon="-1.8339662813"><ele>-129.11</ele><time>2022-01-12T10:15:44Z</time></trkpt><trkpt lat="51.9079528749" lon="-1.8339023273"><ele>-129.11</ele><time>2022-01-12T10:15:49Z</time></trkpt><trkpt lat="51.9079624303" lon="-1.8338648602"><ele>-129.11</ele><time>2022-01-12T10:15:51Z</time></trkpt><trkpt lat="51.9079252984" lon="-1.8336103857"><ele>-126.85</ele><time>2022-01-12T10:16:08Z</time></trkpt><trkpt lat="51.9079793617" lon="-1.8333839066"><ele>-124.70</ele><time>2022-01-12T10:16:27Z</time></trkpt><trkpt lat="51.9079755060" lon="-1.8331329525"><ele>-122.68</ele><time>2022-01-12T10:16:46Z</time></trkpt><trkpt lat="51.9079542160" lon="-1.8330281787"><ele>-121.12</ele><time>2022-01-12T10:17:04Z</time></trkpt><trkpt lat="51.9079796132" lon="-1.8329190463"><ele>-120.33</ele><time>2022-01-12T10:17:23Z</time></trkpt><trkpt lat="51.9079554733" lon="-1.8326777313"><ele>-118.32</ele><time>2022-01-12T10:17:41Z</time></trkpt><trkpt lat="51.9079211075" lon="-1.8324173056"><ele>-115.59</ele><time>2022-01-12T10:18:04Z</time></trkpt><trkpt lat="51.9078631047" lon="-1.8322418723"><ele>-113.46</ele><time>2022-01-12T10:18:22Z</time></trkpt><trkpt lat="51.9078395516" lon="-1.8321293034"><ele>-112.38</ele><time>2022-01-12T10:18:41Z</time></trkpt><trkpt lat="51.9078444131" lon="-1.8321236037"><ele>-112.19</ele><time>2022-01-12T10:19:06Z</time></trkpt><trkpt lat="51.9078448322" lon="-1.8321080133"><ele>-112.75</ele><time>2022-01-12T10:19:31Z</time></trkpt><trkpt lat="51.9078377075" lon="-1.8321098574"><ele>-112.27</ele><time>2022-01-12T10:19:54Z</time></trkpt><trkpt lat="51.9078154117" lon="-1.8321042415"><ele>-111.94</ele><time>2022-01-12T10:20:21Z</time></trkpt><trkpt lat="51.9077038486" lon="-1.8319583964"><ele>-111.91</ele><time>2022-01-12T10:20:36Z</time></trkpt><trkpt lat="51.9076165929" lon="-1.8318444863"><ele>-110.58</ele><time>2022-01-12T10:20:54Z</time></trkpt><trkpt lat="51.9075143337" lon="-1.8316984735"><ele>-108.63</ele><time>2022-01-12T10:21:11Z</time></trkpt><trkpt lat="51.9074077997" lon="-1.8315388821"><ele>-106.72</ele><time>2022-01-12T10:21:26Z</time></trkpt><trkpt lat="51.9073255733" lon="-1.8314036820"><ele>-104.41</ele><time>2022-01-12T10:21:43Z</time></trkpt><trkpt lat="51.9072244037" lon="-1.8312734272"><ele>-103.22</ele><time>2022-01-12T10:22:03Z</time></trkpt><trkpt lat="51.9071894512" lon="-1.8312430009"><ele>-103.33</ele><time>2022-01-12T10:22:24Z</time></trkpt><trkpt lat="51.9071820751" lon="-1.8312173523"><ele>-101.22</ele><time>2022-01-12T10:22:28Z</time></trkpt><trkpt lat="51.9070762955" lon="-1.8311122432"><ele>-101.34</ele><time>2022-01-12T10:22:54Z</time></trkpt><trkpt lat="51.9070412591" lon="-1.8310840800"><ele>-98.23</ele><time>2022-01-12T10:22:59Z</time></trkpt><trkpt lat="51.9070281833" lon="-1.8310734350"><ele>-97.44</ele><time>2022-01-12T10:23:01Z</time></trkpt><trkpt lat="51.9069113396" lon="-1.8309699185"><ele>-97.72</ele><time>2022-01-12T10:23:21Z</time></trkpt><trkpt lat="51.9068590365" lon="-1.8309332058"><ele>-96.93</ele><time>2022-01-12T10:23:41Z</time></trkpt><trkpt lat="51.9067475572" lon="-1.8308994267"><ele>-96.08</ele><time>2022-01-12T10:23:59Z</time></trkpt><trkpt lat="51.9065737166" lon="-1.8308664020"><ele>-94.90</ele><time>2022-01-12T10:24:20Z</time></trkpt><trkpt lat="51.9064269494" lon="-1.8308608700"><ele>-93.64</ele><time>2022-01-12T10:24:41Z</time></trkpt><trkpt lat="51.9062806014" lon="-1.8308601156"><ele>-92.84</ele><time>2022-01-12T10:25:06Z</time></trkpt><trkpt lat="51.9061109517" lon="-1.8309123348"><ele>-91.79</ele><time>2022-01-12T10:25:28Z</time></trkpt><trkpt lat="51.9059624244" lon="-1.8309285119"><ele>-91.03</ele><time>2022-01-12T10:25:50Z</time></trkpt><trkpt lat="51.9057948701" lon="-1.8309363071"><ele>-90.40</ele><time>2022-01-12T10:26:09Z</time></trkpt><trkpt lat="51.9057315029" lon="-1.8309617881"><ele>-90.14</ele><time>2022-01-12T10:26:23Z</time></trkpt><trkpt lat="51.9057183433" lon="-1.8310178630"><ele>-89.91</ele><time>2022-01-12T10:26:37Z</time></trkpt><trkpt lat="51.9055997394" lon="-1.8309814855"><ele>-89.66</ele><time>2022-01-12T10:26:57Z</time></trkpt><trkpt lat="51.9055721629" lon="-1.8309902027"><ele>-89.36</ele><time>2022-01-12T10:27:18Z</time></trkpt><trkpt lat="51.9054927025" lon="-1.8309682421"><ele>-89.43</ele><time>2022-01-12T10:27:37Z</time></trkpt><trkpt lat="51.9054185227" lon="-1.8309726845"><ele>-89.18</ele><time>2022-01-12T10:27:56Z</time></trkpt><trkpt lat="51.9053007569" lon="-1.8309753668"><ele>-89.18</ele><time>2022-01-12T10:28:15Z</time></trkpt><trkpt lat="51.9051535707" lon="-1.8309936393"><ele>-89.18</ele><time>2022-01-12T10:28:34Z</time></trkpt><trkpt lat="51.9049827475" lon="-1.8309986684"><ele>-89.18</ele><time>2022-01-12T10:28:56Z</time></trkpt><trkpt lat="51.9048234075" lon="-1.8309855089"><ele>-89.18</ele><time>2022-01-12T10:29:16Z</time></trkpt><trkpt lat="51.9046793226" lon="-1.8310065474"><ele>-89.18</ele><time>2022-01-12T10:29:35Z</time></trkpt><trkpt lat="51.9045252632" lon="-1.8310261611"><ele>-89.18</ele><time>2022-01-12T10:29:54Z</time></trkpt><trkpt lat="51.9044100959" lon="-1.8309967406"><ele>-89.18</ele><time>2022-01-12T10:30:16Z</time></trkpt><trkpt lat="51.9043265283" lon="-1.8309864309"><ele>-89.18</ele><time>2022-01-12T10:30:36Z</time></trkpt><trkpt lat="51.9043273665" lon="-1.8309295177"><ele>-89.18</ele><time>2022-01-12T10:30:57Z</time></trkpt><trkpt lat="51.9043282047" lon="-1.8309082277"><ele>-89.18</ele><time>2022-01-12T10:31:22Z</time></trkpt><trkpt lat="51.9043461420" lon="-1.8309013546"><ele>-89.18</ele><time>2022-01-12T10:31:43Z</time></trkpt><trkpt lat="51.9042655081" lon="-1.8310333695"><ele>-89.18</ele><time>2022-01-12T10:32:02Z</time></trkpt><trkpt lat="51.9042417873" lon="-1.8310015183"><ele>-89.18</ele><time>2022-01-12T10:32:26Z</time></trkpt><trkpt lat="51.9041109458" lon="-1.8309557531"><ele>-89.18</ele><time>2022-01-12T10:32:47Z</time></trkpt><trkpt lat="51.9038946088" lon="-1.8308527395"><ele>-89.18</ele><time>2022-01-12T10:33:06Z</time></trkpt><trkpt lat="51.9036723208" lon="-1.8306785636"><ele>-89.18</ele><time>2022-01-12T10:33:28Z</time></trkpt><trkpt lat="51.9036084507" lon="-1.8306451198"><ele>-89.18</ele><time>2022-01-12T10:33:35Z</time></trkpt><trkpt lat="51.9035065267" lon="-1.8305773940"><ele>-89.18</ele><time>2022-01-12T10:33:55Z</time></trkpt><trkpt lat="51.9034184329" lon="-1.8305261806"><ele>-92.29</ele><time>2022-01-12T10:33:59Z</time></trkpt><trkpt lat="51.9033612683" lon="-1.8304970954"><ele>-93.19</ele><time>2022-01-12T10:34:08Z</time></trkpt><trkpt lat="51.9031616114" lon="-1.8306172080"><ele>-94.42</ele><time>2022-01-12T10:34:29Z</time></trkpt><trkpt lat="51.9030303508" lon="-1.8307925574"><ele>-95.32</ele><time>2022-01-12T10:34:46Z</time></trkpt><trkpt lat="51.9029873516" lon="-1.8307576049"><ele>-96.40</ele><time>2022-01-12T10:35:00Z</time></trkpt><trkpt lat="51.9029165246" lon="-1.8307239097"><ele>-96.80</ele><time>2022-01-12T10:35:21Z</time></trkpt><trkpt lat="51.9029306062" lon="-1.8305634800"><ele>-98.42</ele><time>2022-01-12T10:35:40Z</time></trkpt><trkpt lat="51.9029279239" lon="-1.8304561917"><ele>-96.63</ele><time>2022-01-12T10:35:49Z</time></trkpt><trkpt lat="51.9028868526" lon="-1.8303463049"><ele>-98.77</ele><time>2022-01-12T10:36:09Z</time></trkpt><trkpt lat="51.9027726911" lon="-1.8303137831"><ele>-99.91</ele><time>2022-01-12T10:36:30Z</time></trkpt><trkpt lat="51.9026782271" lon="-1.8302806746"><ele>-100.92</ele><time>2022-01-12T10:36:50Z</time></trkpt><trkpt lat="51.9026638102" lon="-1.8302866258"><ele>-102.00</ele><time>2022-01-12T10:37:10Z</time></trkpt><trkpt lat="51.9026434422" lon="-1.8302592169"><ele>-102.96</ele><time>2022-01-12T10:37:28Z</time></trkpt><trkpt lat="51.9026243314" lon="-1.8302163016"><ele>-102.01</ele><time>2022-01-12T10:37:56Z</time></trkpt><trkpt lat="51.9026420172" lon="-1.8302303832"><ele>-102.98</ele><time>2022-01-12T10:38:26Z</time></trkpt><trkpt lat="51.9025230780" lon="-1.8302002084"><ele>-105.39</ele><time>2022-01-12T10:38:46Z</time></trkpt><trkpt lat="51.9024427794" lon="-1.8301173951"><ele>-106.20</ele><time>2022-01-12T10:39:00Z</time></trkpt><trkpt lat="51.9024151191" lon="-1.8300749827"><ele>-108.53</ele><time>2022-01-12T10:39:18Z</time></trkpt><trkpt lat="51.9023789931" lon="-1.8300949316"><ele>-108.87</ele><time>2022-01-12T10:39:27Z</time></trkpt><trkpt lat="51.9023722038" lon="-1.8299733102"><ele>-109.85</ele><time>2022-01-12T10:39:46Z</time></trkpt><trkpt lat="51.9023850281" lon="-1.8299335800"><ele>-110.97</ele><time>2022-01-12T10:40:01Z</time></trkpt><trkpt lat="51.9023214933" lon="-1.8296773452"><ele>-112.14</ele><time>2022-01-12T10:40:20Z</time></trkpt><trkpt lat="51.9023468066" lon="-1.8294062745"><ele>-114.34</ele><time>2022-01-12T10:40:39Z</time></trkpt><trkpt lat="51.9022912346" lon="-1.8292275723"><ele>-117.53</ele><time>2022-01-12T10:40:57Z</time></trkpt><trkpt lat="51.9021939207" lon="-1.8289711699"><ele>-120.62</ele><time>2022-01-12T10:41:15Z</time></trkpt><trkpt lat="51.9021678530" lon="-1.8287815712"><ele>-123.39</ele><time>2022-01-12T10:41:37Z</time></trkpt><trkpt lat="51.9021213334" lon="-1.8287744466"><ele>-124.52</ele><time>2022-01-12T10:41:57Z</time></trkpt><trkpt lat="51.9021295477" lon="-1.8287765421"><ele>-126.48</ele><time>2022-01-12T10:42:20Z</time></trkpt><trkpt lat="51.9021292124" lon="-1.8286069762"><ele>-124.81</ele><time>2022-01-12T10:42:33Z</time></trkpt><trkpt lat="51.9020221755" lon="-1.8283860292"><ele>-127.49</ele><time>2022-01-12T10:42:55Z</time></trkpt><trkpt lat="51.9019613229" lon="-1.8282284494"><ele>-127.89</ele><time>2022-01-12T10:43:19Z</time></trkpt><trkpt lat="51.9019477442" lon="-1.8281429540"><ele>-127.67</ele><time>2022-01-12T10:43:23Z</time></trkpt><trkpt lat="51.9019562099" lon="-1.8280353304"><ele>-126.93</ele><time>2022-01-12T10:43:32Z</time></trkpt><trkpt lat="51.9020365924" lon="-1.8277029041"><ele>-127.60</ele><time>2022-01-12T10:43:51Z</time></trkpt><trkpt lat="51.9021055754" lon="-1.8274426460"><ele>-128.44</ele><time>2022-01-12T10:44:09Z</time></trkpt><trkpt lat="51.9021402765" lon="-1.8272261415"><ele>-128.45</ele><time>2022-01-12T10:44:30Z</time></trkpt><trkpt lat="51.9021012168" lon="-1.8271252234"><ele>-128.00</ele><time>2022-01-12T10:44:50Z</time></trkpt><trkpt lat="51.9020310603" lon="-1.8268735148"><ele>-128.38</ele><time>2022-01-12T10:45:09Z</time></trkpt><trkpt lat="51.9020226784" lon="-1.8265692517"><ele>-128.36</ele><time>2022-01-12T10:45:30Z</time></trkpt><trkpt lat="51.9019384403" lon="-1.8261391763"><ele>-128.86</ele><time>2022-01-12T10:45:57Z</time></trkpt><trkpt lat="51.9018571358" lon="-1.8258669320"><ele>-128.67</ele><time>2022-01-12T10:46:21Z</time></trkpt><trkpt lat="51.9018129632" lon="-1.8255822826"><ele>-128.86</ele><time>2022-01-12T10:46:42Z</time></trkpt><trkpt lat="51.9017742388" lon="-1.8254353479"><ele>-128.43</ele><time>2022-01-12T10:47:04Z</time></trkpt><trkpt lat="51.9017625041" lon="-1.8252382055"><ele>-128.43</ele><time>2022-01-12T10:47:27Z</time></trkpt><trkpt lat="51.9017951936" lon="-1.8252989743"><ele>-128.43</ele><time>2022-01-12T10:47:52Z</time></trkpt><trkpt lat="51.9018346723" lon="-1.8253616709"><ele>-128.43</ele><time>2022-01-12T10:48:09Z</time></trkpt><trkpt lat="51.9018184952" lon="-1.8252573162"><ele>-128.43</ele><time>2022-01-12T10:48:30Z</time></trkpt><trkpt lat="51.9018011447" lon="-1.8252738286"><ele>-128.43</ele><time>2022-01-12T10:48:52Z</time></trkpt><trkpt lat="51.9018379413" lon="-1.8253234494"><ele>-128.73</ele><time>2022-01-12T10:49:06Z</time></trkpt><trkpt lat="51.9017910864" lon="-1.8252527900"><ele>-129.15</ele><time>2022-01-12T10:49:28Z</time></trkpt><trkpt lat="51.9018148910" lon="-1.8252600823"><ele>-128.70</ele><time>2022-01-12T10:49:48Z</time></trkpt><trkpt lat="51.9018131308" lon="-1.8252620101"><ele>-129.08</ele><time>2022-01-12T10:50:16Z</time></trkpt><trkpt lat="51.9018200878" lon="-1.8253508583"><ele>-128.79</ele><time>2022-01-12T10:50:31Z</time></trkpt><trkpt lat="51.9017832913" lon="-1.8252641056"><ele>-129.09</ele><time>2022-01-12T10:50:50Z</time></trkpt><trkpt lat="51.9017900806" lon="-1.8252663687"><ele>-128.13</ele><time>2022-01-12T10:51:05Z</time></trkpt><trkpt lat="51.9017971214" lon="-1.8252579868"><ele>-129.67</ele><time>2022-01-12T10:51:31Z</time></trkpt><trkpt lat="51.9018117059" lon="-1.8252464198"><ele>-128.91</ele><time>2022-01-12T10:51:58Z</time></trkpt><trkpt lat="51.9018487539" lon="-1.8252677098"><ele>-128.42</ele><time>2022-01-12T10:52:23Z</time></trkpt><trkpt lat="51.9018298108" lon="-1.8252409715"><ele>-128.68</ele><time>2022-01-12T10:52:52Z</time></trkpt><trkpt lat="51.9017863087" lon="-1.8252535444"><ele>-130.56</ele><time>2022-01-12T10:53:20Z</time></trkpt><trkpt lat="51.9017656893" lon="-1.8252426479"><ele>-128.88</ele><time>2022-01-12T10:53:26Z</time></trkpt><trkpt lat="51.9017947745" lon="-1.8252338469"><ele>-128.48</ele><time>2022-01-12T10:53:54Z</time></trkpt><trkpt lat="51.9018099457" lon="-1.8252465036"><ele>-128.53</ele><time>2022-01-12T10:54:20Z</time></trkpt><trkpt lat="51.9018536992" lon="-1.8252786063"><ele>-128.20</ele><time>2022-01-12T10:54:44Z</time></trkpt><trkpt lat="51.9018411264" lon="-1.8252968788"><ele>-129.37</ele><time>2022-01-12T10:55:08Z</time></trkpt><trkpt lat="51.9018086884" lon="-1.8252838869"><ele>-128.05</ele><time>2022-01-12T10:55:15Z</time></trkpt><trkpt lat="51.9017653540" lon="-1.8252826296"><ele>-127.41</ele><time>2022-01-12T10:55:40Z</time></trkpt><trkpt lat="51.9017934334" lon="-1.8252579030"><ele>-128.34</ele><time>2022-01-12T10:56:08Z</time></trkpt><trkpt lat="51.9018337503" lon="-1.8252821267"><ele>-127.54</ele><time>2022-01-12T10:56:33Z</time></trkpt><trkpt lat="51.9018475804" lon="-1.8253477570"><ele>-127.67</ele><time>2022-01-12T10:56:52Z</time></trkpt><trkpt lat="51.9018329121" lon="-1.8253620062"><ele>-127.55</ele><time>2022-01-12T10:57:24Z</time></trkpt><trkpt lat="51.9017708022" lon="-1.8253252096"><ele>-127.35</ele><time>2022-01-12T10:57:49Z</time></trkpt><trkpt lat="51.9017675333" lon="-1.8252358586"><ele>-128.04</ele><time>2022-01-12T10:58:11Z</time></trkpt><trkpt lat="51.9018038269" lon="-1.8252143171"><ele>-128.04</ele><time>2022-01-12T10:58:40Z</time></trkpt><trkpt lat="51.9017719757" lon="-1.8252182566"><ele>-128.04</ele><time>2022-01-12T10:59:06Z</time></trkpt><trkpt lat="51.9018249493" lon="-1.8252258841"><ele>-128.04</ele><time>2022-01-12T10:59:28Z</time></trkpt><trkpt lat="51.9018461555" lon="-1.8252237886"><ele>-128.04</ele><time>2022-01-12T11:00:03Z</time></trkpt><trkpt lat="51.9018543698" lon="-1.8252382055"><ele>-128.04</ele><time>2022-01-12T11:00:28Z</time></trkpt><trkpt lat="51.9018619135" lon="-1.8252322543"><ele>-128.04</ele><time>2022-01-12T11:00:51Z</time></trkpt><trkpt lat="51.9018295594" lon="-1.8252092879"><ele>-128.04</ele><time>2022-01-12T11:01:15Z</time></trkpt><trkpt lat="51.9018532801" lon="-1.8253691308"><ele>-128.04</ele><time>2022-01-12T11:01:33Z</time></trkpt><trkpt lat="51.9017899968" lon="-1.8253384531"><ele>-128.04</ele><time>2022-01-12T11:01:52Z</time></trkpt><trkpt lat="51.9017782621" lon="-1.8252750020"><ele>-128.04</ele><time>2022-01-12T11:02:12Z</time></trkpt><trkpt lat="51.9017695449" lon="-1.8252364453"><ele>-128.04</ele><time>2022-01-12T11:02:37Z</time></trkpt><trkpt lat="51.9018098619" lon="-1.8253532890"><ele>-126.94</ele><time>2022-01-12T11:02:53Z</time></trkpt><trkpt lat="51.9018241111" lon="-1.8253767584"><ele>-127.09</ele><time>2022-01-12T11:03:14Z</time></trkpt><trkpt lat="51.9018428028" lon="-1.8254003953"><ele>-126.75</ele><time>2022-01-12T11:03:39Z</time></trkpt><trkpt lat="51.9018420484" lon="-1.8253897503"><ele>-127.27</ele><time>2022-01-12T11:04:04Z</time></trkpt><trkpt lat="51.9018034916" lon="-1.8253553007"><ele>-127.27</ele><time>2022-01-12T11:04:26Z</time></trkpt><trkpt lat="51.9017944392" lon="-1.8252454977"><ele>-127.27</ele><time>2022-01-12T11:04:48Z</time></trkpt><trkpt lat="51.9018025696" lon="-1.8252058513"><ele>-127.27</ele><time>2022-01-12T11:05:09Z</time></trkpt><trkpt lat="51.9018008094" lon="-1.8251707312"><ele>-127.27</ele><time>2022-01-12T11:05:29Z</time></trkpt><trkpt lat="51.9016914256" lon="-1.8250527140"><ele>-127.27</ele><time>2022-01-12T11:05:50Z</time></trkpt><trkpt lat="51.9016656931" lon="-1.8249117304"><ele>-127.27</ele><time>2022-01-12T11:06:07Z</time></trkpt><trkpt lat="51.9015772641" lon="-1.8246784620"><ele>-127.27</ele><time>2022-01-12T11:06:28Z</time></trkpt><trkpt lat="51.9014741667" lon="-1.8244863488"><ele>-127.27</ele><time>2022-01-12T11:06:46Z</time></trkpt><trkpt lat="51.9014382921" lon="-1.8244622089"><ele>-127.27</ele><time>2022-01-12T11:07:07Z</time></trkpt><trkpt lat="51.9015210215" lon="-1.8244869355"><ele>-127.27</ele><time>2022-01-12T11:07:24Z</time></trkpt><trkpt lat="51.9014499430" lon="-1.8243584409"><ele>-127.27</ele><time>2022-01-12T11:07:44Z</time></trkpt><trkpt lat="51.9014235400" lon="-1.8243321218"><ele>-127.27</ele><time>2022-01-12T11:08:02Z</time></trkpt><trkpt lat="51.9014053512" lon="-1.8240685947"><ele>-127.27</ele><time>2022-01-12T11:08:22Z</time></trkpt><trkpt lat="51.9014648627" lon="-1.8238121085"><ele>-127.25</ele><time>2022-01-12T11:08:43Z</time></trkpt><trkpt lat="51.9014778547" lon="-1.8236032315"><ele>-127.63</ele><time>2022-01-12T11:09:01Z</time></trkpt><trkpt lat="51.9014870748" lon="-1.8235187419"><ele>-126.59</ele><time>2022-01-12T11:09:21Z</time></trkpt><trkpt lat="51.9014849793" lon="-1.8235267885"><ele>-130.32</ele><time>2022-01-12T11:09:25Z</time></trkpt><trkpt lat="51.9014864042" lon="-1.8235377688"><ele>-132.01</ele><time>2022-01-12T11:09:28Z</time></trkpt><trkpt lat="51.9014568999" lon="-1.8235040735"><ele>-128.49</ele><time>2022-01-12T11:09:33Z</time></trkpt><trkpt lat="51.9014490210" lon="-1.8234861363"><ele>-124.69</ele><time>2022-01-12T11:09:36Z</time></trkpt><trkpt lat="51.9014473446" lon="-1.8234923389"><ele>-124.84</ele><time>2022-01-12T11:09:37Z</time></trkpt><trkpt lat="51.9014496915" lon="-1.8234523572"><ele>-127.88</ele><time>2022-01-12T11:09:58Z</time></trkpt><trkpt lat="51.9013702311" lon="-1.8232100364"><ele>-127.88</ele><time>2022-01-12T11:10:17Z</time></trkpt><trkpt lat="51.9012956321" lon="-1.8230589107"><ele>-127.99</ele><time>2022-01-12T11:10:33Z</time></trkpt><trkpt lat="51.9012942072" lon="-1.8230623472"><ele>-131.98</ele><time>2022-01-12T11:10:39Z</time></trkpt><trkpt lat="51.9012965541" lon="-1.8230650295"><ele>-133.79</ele><time>2022-01-12T11:10:42Z</time></trkpt><trkpt lat="51.9012900162" lon="-1.8230682146"><ele>-130.03</ele><time>2022-01-12T11:10:47Z</time></trkpt><trkpt lat="51.9012857415" lon="-1.8230748363"><ele>-125.60</ele><time>2022-01-12T11:10:49Z</time></trkpt><trkpt lat="51.9012736715" lon="-1.8230706453"><ele>-124.77</ele><time>2022-01-12T11:10:51Z</time></trkpt><trkpt lat="51.9012725819" lon="-1.8230365310"><ele>-128.25</ele><time>2022-01-12T11:10:54Z</time></trkpt><trkpt lat="51.9012693129" lon="-1.8228502851"><ele>-126.60</ele><time>2022-01-12T11:11:05Z</time></trkpt><trkpt lat="51.9011951331" lon="-1.8224997539"><ele>-127.99</ele><time>2022-01-12T11:11:28Z</time></trkpt><trkpt lat="51.9011409860" lon="-1.8222366460"><ele>-128.59</ele><time>2022-01-12T11:11:54Z</time></trkpt><trkpt lat="51.9011386391" lon="-1.8220159505"><ele>-128.38</ele><time>2022-01-12T11:12:18Z</time></trkpt><trkpt lat="51.9010967296" lon="-1.8218337279"><ele>-128.38</ele><time>2022-01-12T11:12:39Z</time></trkpt><trkpt lat="51.9010699913" lon="-1.8216339033"><ele>-128.38</ele><time>2022-01-12T11:12:55Z</time></trkpt><trkpt lat="51.9010331109" lon="-1.8214002997"><ele>-128.38</ele><time>2022-01-12T11:13:16Z</time></trkpt><trkpt lat="51.9010042772" lon="-1.8212080188"><ele>-128.38</ele><time>2022-01-12T11:13:32Z</time></trkpt><trkpt lat="51.9010337815" lon="-1.8209340144"><ele>-128.38</ele><time>2022-01-12T11:13:56Z</time></trkpt><trkpt lat="51.9010613579" lon="-1.8207552284"><ele>-128.38</ele><time>2022-01-12T11:14:11Z</time></trkpt><trkpt lat="51.9011649583" lon="-1.8206511252"><ele>-128.38</ele><time>2022-01-12T11:14:25Z</time></trkpt><trkpt lat="51.9011552352" lon="-1.8206164241"><ele>-128.38</ele><time>2022-01-12T11:14:27Z</time></trkpt><trkpt lat="51.9011710770" lon="-1.8204976525"><ele>-128.38</ele><time>2022-01-12T11:14:50Z</time></trkpt><trkpt lat="51.9010609388" lon="-1.8202503026"><ele>-128.38</ele><time>2022-01-12T11:15:08Z</time></trkpt><trkpt lat="51.9011424948" lon="-1.8201018590"><ele>-128.38</ele><time>2022-01-12T11:15:28Z</time></trkpt><trkpt lat="51.9011877570" lon="-1.8198327161"><ele>-128.38</ele><time>2022-01-12T11:15:52Z</time></trkpt><trkpt lat="51.9011938758" lon="-1.8195480667"><ele>-128.38</ele><time>2022-01-12T11:16:15Z</time></trkpt><trkpt lat="51.9012467656" lon="-1.8193445541"><ele>-128.38</ele><time>2022-01-12T11:16:30Z</time></trkpt><trkpt lat="51.9013104681" lon="-1.8191309832"><ele>-128.38</ele><time>2022-01-12T11:16:51Z</time></trkpt><trkpt lat="51.9012890104" lon="-1.8190822843"><ele>-128.38</ele><time>2022-01-12T11:17:03Z</time></trkpt><trkpt lat="51.9012694806" lon="-1.8190236110"><ele>-128.38</ele><time>2022-01-12T11:17:26Z</time></trkpt><trkpt lat="51.9012770243" lon="-1.8189631775"><ele>-128.38</ele><time>2022-01-12T11:17:46Z</time></trkpt><trkpt lat="51.9012388028" lon="-1.8188748322"><ele>-128.38</ele><time>2022-01-12T11:18:16Z</time></trkpt><trkpt lat="51.9012052752" lon="-1.8186776899"><ele>-128.37</ele><time>2022-01-12T11:18:36Z</time></trkpt><trkpt lat="51.9011948816" lon="-1.8185716588"><ele>-128.37</ele><time>2022-01-12T11:18:56Z</time></trkpt><trkpt lat="51.9011559896" lon="-1.8184068706"><ele>-130.49</ele><time>2022-01-12T11:19:09Z</time></trkpt><trkpt lat="51.9011953846" lon="-1.8181523960"><ele>-131.18</ele><time>2022-01-12T11:19:27Z</time></trkpt><trkpt lat="51.9012276549" lon="-1.8179190438"><ele>-131.04</ele><time>2022-01-12T11:19:44Z</time></trkpt><trkpt lat="51.9012354501" lon="-1.8177269306"><ele>-131.10</ele><time>2022-01-12T11:19:58Z</time></trkpt><trkpt lat="51.9012529682" lon="-1.8174899742"><ele>-131.42</ele><time>2022-01-12T11:20:16Z</time></trkpt><trkpt lat="51.9012648705" lon="-1.8172410317"><ele>-131.55</ele><time>2022-01-12T11:20:33Z</time></trkpt><trkpt lat="51.9012802932" lon="-1.8170521036"><ele>-131.73</ele><time>2022-01-12T11:20:48Z</time></trkpt><trkpt lat="51.9013061095" lon="-1.8168734014"><ele>-131.79</ele><time>2022-01-12T11:21:02Z</time></trkpt><trkpt lat="51.9012647029" lon="-1.8165610079"><ele>-131.74</ele><time>2022-01-12T11:21:26Z</time></trkpt><trkpt lat="51.9012564886" lon="-1.8162292521"><ele>-131.40</ele><time>2022-01-12T11:21:52Z</time></trkpt><trkpt lat="51.9012655411" lon="-1.8158751167"><ele>-131.04</ele><time>2022-01-12T11:22:19Z</time></trkpt><trkpt lat="51.9012318458" lon="-1.8155777268"><ele>-130.70</ele><time>2022-01-12T11:22:44Z</time></trkpt><trkpt lat="51.9011674728" lon="-1.8153146189"><ele>-129.63</ele><time>2022-01-12T11:23:05Z</time></trkpt><trkpt lat="51.9011585880" lon="-1.8151453882"><ele>-129.06</ele><time>2022-01-12T11:23:26Z</time></trkpt><trkpt lat="51.9011315145" lon="-1.8150089309"><ele>-127.61</ele><time>2022-01-12T11:23:47Z</time></trkpt><trkpt lat="51.9010898564" lon="-1.8147601560"><ele>-126.01</ele><time>2022-01-12T11:24:10Z</time></trkpt><trkpt lat="51.9010623638" lon="-1.8145578168"><ele>-125.17</ele><time>2022-01-12T11:24:32Z</time></trkpt><trkpt lat="51.9009925425" lon="-1.8144589104"><ele>-123.21</ele><time>2022-01-12T11:24:57Z</time></trkpt><trkpt lat="51.9010034390" lon="-1.8144185096"><ele>-122.74</ele><time>2022-01-12T11:25:22Z</time></trkpt><trkpt lat="51.9009651337" lon="-1.8144361116"><ele>-122.68</ele><time>2022-01-12T11:25:47Z</time></trkpt><trkpt lat="51.9008949772" lon="-1.8145134766"><ele>-122.52</ele><time>2022-01-12T11:26:09Z</time></trkpt><trkpt lat="51.9009047840" lon="-1.8144472595"><ele>-122.48</ele><time>2022-01-12T11:26:35Z</time></trkpt><trkpt lat="51.9009632058" lon="-1.8142221216"><ele>-123.86</ele><time>2022-01-12T11:27:02Z</time></trkpt><trkpt lat="51.9009066280" lon="-1.8141474389"><ele>-124.72</ele><time>2022-01-12T11:27:21Z</time></trkpt><trkpt lat="51.9009437598" lon="-1.8139822315"><ele>-126.55</ele><time>2022-01-12T11:27:42Z</time></trkpt><trkpt lat="51.9010092225" lon="-1.8138581794"><ele>-129.26</ele><time>2022-01-12T11:28:03Z</time></trkpt><trkpt lat="51.9011198636" lon="-1.8137505557"><ele>-131.68</ele><time>2022-01-12T11:28:27Z</time></trkpt><trkpt lat="51.9011806324" lon="-1.8136492185"><ele>-132.10</ele><time>2022-01-12T11:28:52Z</time></trkpt><trkpt lat="51.9012577459" lon="-1.8135926407"><ele>-132.15</ele><time>2022-01-12T11:29:14Z</time></trkpt><trkpt lat="51.9014062732" lon="-1.8135128450"><ele>-132.38</ele><time>2022-01-12T11:29:39Z</time></trkpt><trkpt lat="51.9015306607" lon="-1.8134949077"><ele>-132.38</ele><time>2022-01-12T11:30:02Z</time></trkpt><trkpt lat="51.9016692135" lon="-1.8135634717"><ele>-132.38</ele><time>2022-01-12T11:30:23Z</time></trkpt><trkpt lat="51.9018673617" lon="-1.8135372363"><ele>-132.38</ele><time>2022-01-12T11:30:49Z</time></trkpt><trkpt lat="51.9020458963" lon="-1.8134501483"><ele>-132.38</ele><time>2022-01-12T11:31:12Z</time></trkpt><trkpt lat="51.9021648355" lon="-1.8133440334"><ele>-132.38</ele><time>2022-01-12T11:31:32Z</time></trkpt><trkpt lat="51.9022080861" lon="-1.8132793251"><ele>-132.38</ele><time>2022-01-12T11:31:54Z</time></trkpt><trkpt lat="51.9022200722" lon="-1.8132585380"><ele>-132.38</ele><time>2022-01-12T11:32:16Z</time></trkpt><trkpt lat="51.9022382610" lon="-1.8131965958"><ele>-132.38</ele><time>2022-01-12T11:32:42Z</time></trkpt><trkpt lat="51.9022686034" lon="-1.8132324703"><ele>-132.38</ele><time>2022-01-12T11:33:03Z</time></trkpt><trkpt lat="51.9023132790" lon="-1.8132864498"><ele>-132.38</ele><time>2022-01-12T11:33:25Z</time></trkpt><trkpt lat="51.9024149515" lon="-1.8133096676"><ele>-132.38</ele><time>2022-01-12T11:33:48Z</time></trkpt><trkpt lat="51.9025090802" lon="-1.8133858591"><ele>-132.38</ele><time>2022-01-12T11:34:08Z</time></trkpt><trkpt lat="51.9026129320" lon="-1.8134824187"><ele>-132.38</ele><time>2022-01-12T11:34:29Z</time></trkpt><trkpt lat="51.9027498085" lon="-1.8136333767"><ele>-132.38</ele><time>2022-01-12T11:34:51Z</time></trkpt><trkpt lat="51.9029321987" lon="-1.8137907889"><ele>-132.38</ele><time>2022-01-12T11:35:15Z</time></trkpt><trkpt lat="51.9029643014" lon="-1.8137939740"><ele>-130.96</ele><time>2022-01-12T11:35:19Z</time></trkpt><trkpt lat="51.9031701609" lon="-1.8138312735"><ele>-131.01</ele><time>2022-01-12T11:35:44Z</time></trkpt><trkpt lat="51.9033051096" lon="-1.8139256537"><ele>-130.93</ele><time>2022-01-12T11:36:07Z</time></trkpt><trkpt lat="51.9033658784" lon="-1.8139005918"><ele>-130.70</ele><time>2022-01-12T11:36:35Z</time></trkpt><trkpt lat="51.9034943730" lon="-1.8139015138"><ele>-131.33</ele><time>2022-01-12T11:36:56Z</time></trkpt><trkpt lat="51.9036706444" lon="-1.8138790503"><ele>-130.99</ele><time>2022-01-12T11:37:16Z</time></trkpt><trkpt lat="51.9038661942" lon="-1.8138095643"><ele>-130.99</ele><time>2022-01-12T11:37:41Z</time></trkpt><trkpt lat="51.9040238578" lon="-1.8137461133"><ele>-130.92</ele><time>2022-01-12T11:38:05Z</time></trkpt><trkpt lat="51.9041005522" lon="-1.8137232307"><ele>-130.92</ele><time>2022-01-12T11:38:27Z</time></trkpt><trkpt lat="51.9043054897" lon="-1.8136340473"><ele>-130.92</ele><time>2022-01-12T11:38:51Z</time></trkpt><trkpt lat="51.9044558611" lon="-1.8136007711"><ele>-130.92</ele><time>2022-01-12T11:39:14Z</time></trkpt><trkpt lat="51.9046431128" lon="-1.8135787267"><ele>-130.92</ele><time>2022-01-12T11:39:39Z</time></trkpt><trkpt lat="51.9048111700" lon="-1.8136386573"><ele>-129.23</ele><time>2022-01-12T11:40:02Z</time></trkpt><trkpt lat="51.9049302768" lon="-1.8136965763"><ele>-128.77</ele><time>2022-01-12T11:40:25Z</time></trkpt><trkpt lat="51.9050931372" lon="-1.8138279207"><ele>-128.57</ele><time>2022-01-12T11:40:47Z</time></trkpt><trkpt lat="51.9053175207" lon="-1.8139509670"><ele>-128.94</ele><time>2022-01-12T11:41:11Z</time></trkpt><trkpt lat="51.9054936245" lon="-1.8141238019"><ele>-129.16</ele><time>2022-01-12T11:41:33Z</time></trkpt><trkpt lat="51.9056625199" lon="-1.8143986445"><ele>-129.43</ele><time>2022-01-12T11:41:59Z</time></trkpt><trkpt lat="51.9057788607" lon="-1.8146906700"><ele>-129.82</ele><time>2022-01-12T11:42:24Z</time></trkpt><trkpt lat="51.9057869073" lon="-1.8149806838"><ele>-130.28</ele><time>2022-01-12T11:42:42Z</time></trkpt><trkpt lat="51.9057800341" lon="-1.8152560294"><ele>-130.54</ele><time>2022-01-12T11:43:00Z</time></trkpt><trkpt lat="51.9057598338" lon="-1.8155511562"><ele>-130.87</ele><time>2022-01-12T11:43:20Z</time></trkpt><trkpt lat="51.9057477638" lon="-1.8157633021"><ele>-130.76</ele><time>2022-01-12T11:43:37Z</time></trkpt><trkpt lat="51.9057537150" lon="-1.8158287648"><ele>-130.74</ele><time>2022-01-12T11:43:53Z</time></trkpt><trkpt lat="51.9057516195" lon="-1.8158735242"><ele>-130.40</ele><time>2022-01-12T11:43:57Z</time></trkpt><trkpt lat="51.9057287369" lon="-1.8160812277"><ele>-130.63</ele><time>2022-01-12T11:44:12Z</time></trkpt><trkpt lat="51.9057121407" lon="-1.8163412344"><ele>-130.27</ele><time>2022-01-12T11:44:33Z</time></trkpt><trkpt lat="51.9057079498" lon="-1.8164196052"><ele>-130.76</ele><time>2022-01-12T11:44:38Z</time></trkpt><trkpt lat="51.9056483" lon="-1.8165279"/><trkpt lat="51.9056082" lon="-1.8175404"/><trkpt lat="51.9058399" lon="-1.8193279"/><trkpt lat="51.9061335" lon="-1.8207946"/><trkpt lat="51.9062901" lon="-1.8210809"/><trkpt lat="51.9065303" lon="-1.8216030"/><trkpt lat="51.9066765" lon="-1.8219398"/><trkpt lat="51.9068539" lon="-1.8221922"/><trkpt lat="51.9070418" lon="-1.8225795"/><trkpt lat="51.9072191" lon="-1.8228151"/><trkpt lat="51.9075525" lon="-1.8230500"/><trkpt lat="51.9080108" lon="-1.8232000"/><trkpt lat="51.9084584" lon="-1.8232489"/><trkpt lat="51.9088749" lon="-1.8233485"/><trkpt lat="51.9091669" lon="-1.8237017"/><trkpt lat="51.9093132" lon="-1.8240891"/><trkpt lat="51.9094493" lon="-1.8246116"/><trkpt lat="51.9095018" lon="-1.8249489"/><trkpt lat="51.9096376" lon="-1.8252689"/><trkpt lat="51.9096490" lon="-1.8259100"/><trkpt lat="51.9096709" lon="-1.8266523"/><trkpt lat="51.9097239" lon="-1.8273101"/><trkpt lat="51.9097345" lon="-1.8279514"/><trkpt lat="51.9097291" lon="-1.8288205"/></trkseg></trk></gpx>